Time;durP1;ratioP1;P1;durP2;ratioP2;P2;SDS_P1;SDS_P2;PMS_P1;PMS_P2;Temp;Humidity;BMP_temperature;BMP_pressure;BME280_temperature;BME280_humidity;BME280_pressure;Samples;Min_cycle;Max_cycle;Signal;HPM_P1;HPM_P2
2024/02/06 00:01:09;;;;;;;1.65;0.50;;;;;;;;;;10529655;28;20386;-75
2024/02/06 00:06:12;;;;;;;1.60;0.68;;;;;;;;;;10529611;28;20040;-76
2024/02/06 00:11:17;;;;;;;4.37;1.00;;;;;;;;;;10531652;28;20047;-77
2024/02/06 00:16:20;;;;;;;1.23;0.60;;;;;;;;;;10533731;28;20484;-78
2024/02/06 00:21:23;;;;;;;6.93;0.82;;;;;;;;;;10537290;28;20048;-76
2024/02/06 00:26:28;;;;;;;1.27;0.85;;;;;;;;;;10537890;28;20055;-76
2024/02/06 00:31:31;;;;;;;1.27;0.95;;;;;;;;;;10532317;28;20091;-76
2024/02/06 00:36:34;;;;;;;3.53;1.05;;;;;;;;;;10535753;28;20422;-77
2024/02/06 00:41:38;;;;;;;2.28;0.80;;;;;;;;;;10545960;27;20126;-77
2024/02/06 00:46:41;;;;;;;1.38;0.40;;;;;;;;;;10546838;27;20122;-78
2024/02/06 00:51:44;;;;;;;2.75;0.68;;;;;;;;;;10542426;27;20044;-74
2024/02/06 00:56:48;;;;;;;1.65;0.28;;;;;;;;;;10538700;27;20095;-79
2024/02/06 01:01:51;;;;;;;;;;;;;;;;;;10540690;27;20144;-76
2024/02/06 01:06:54;;;;;;;4.53;0.90;;;;;;;;;;10538379;27;20058;-75
2024/02/06 01:11:59;;;;;;;3.35;0.80;;;;;;;;;;10541161;27;20497;-76
2024/02/06 01:17:02;;;;;;;2.83;0.65;;;;;;;;;;10542441;27;20103;-76
2024/02/06 01:22:05;;;;;;;2.60;0.77;;;;;;;;;;10548799;27;20108;-77
2024/02/06 01:27:11;;;;;;;2.78;0.73;;;;;;;;;;10527585;28;20044;-77
2024/02/06 01:32:14;;;;;;;1.15;0.80;;;;;;;;;;10547688;27;20040;-77
2024/02/06 01:37:17;;;;;;;1.45;0.63;;;;;;;;;;10546436;27;20046;-77
2024/02/06 01:42:22;;;;;;;2.25;0.60;;;;;;;;;;10543008;27;20162;-77
2024/02/06 01:47:25;;;;;;;2.72;0.70;;;;;;;;;;10544060;27;20603;-76
2024/02/06 01:52:28;;;;;;;4.05;1.27;;;;;;;;;;10542237;27;20075;-75
2024/02/06 01:57:35;;;;;;;1.48;0.63;;;;;;;;;;10542379;27;20139;-76
2024/02/06 02:02:38;;;;;;;2.33;1.00;;;;;;;;;;10544203;27;20131;-76
2024/02/06 02:07:41;;;;;;;4.85;0.80;;;;;;;;;;10542105;27;20143;-78
2024/02/06 02:12:45;;;;;;;3.25;0.60;;;;;;;;;;10540658;27;20055;-77
2024/02/06 02:17:49;;;;;;;1.05;0.50;;;;;;;;;;10548626;28;20456;-78
2024/02/06 02:22:54;;;;;;;1.13;0.40;;;;;;;;;;10543281;28;20485;-76
2024/02/06 02:27:57;;;;;;;;;;;;;;;;;;10546211;27;20040;-76
2024/02/06 02:32:59;;;;;;;3.60;0.80;;;;;;;;;;10542965;28;20010;-76
2024/02/06 02:38:04;;;;;;;1.65;0.77;;;;;;;;;;10546951;27;20134;-76
2024/02/06 02:43:07;;;;;;;5.13;1.05;;;;;;;;;;10543611;27;20119;-76
2024/02/06 02:48:10;;;;;;;1.73;0.40;;;;;;;;;;10540194;27;20051;-75
2024/02/06 02:53:14;;;;;;;1.73;0.40;;;;;;;;;;10539865;27;20477;-74
2024/02/06 02:58:17;;;;;;;1.35;0.65;;;;;;;;;;10537568;27;20071;-75
2024/02/06 03:03:20;;;;;;;1.38;0.73;;;;;;;;;;10533610;27;20492;-76
2024/02/06 03:08:24;;;;;;;2.70;0.60;;;;;;;;;;10533913;28;20059;-75
2024/02/06 03:13:27;;;;;;;5.03;0.90;;;;;;;;;;10535284;27;20502;-76
2024/02/06 03:18:30;;;;;;;6.65;1.55;;;;;;;;;;10537523;28;20043;-75
2024/02/06 03:23:34;;;;;;;2.00;0.55;;;;;;;;;;10536585;28;20178;-74
2024/02/06 03:28:37;;;;;;;3.05;0.65;;;;;;;;;;10537456;28;20401;-75
2024/02/06 03:33:40;;;;;;;2.05;0.47;;;;;;;;;;10538091;28;20048;-75
2024/02/06 03:38:45;;;;;;;0.80;0.40;;;;;;;;;;10540892;27;20573;-76
2024/02/06 03:43:47;;;;;;;2.67;0.43;;;;;;;;;;10540508;28;20166;-74
2024/02/06 03:48:50;;;;;;;3.13;0.80;;;;;;;;;;10532646;28;20205;-75
2024/02/06 03:53:55;;;;;;;3.10;1.30;;;;;;;;;;10531156;28;20523;-77
2024/02/06 03:58:58;;;;;;;3.40;0.60;;;;;;;;;;10537342;28;20122;-77
2024/02/06 04:04:01;;;;;;;0.68;0.52;;;;;;;;;;10536067;28;20044;-76
2024/02/06 04:09:06;;;;;;;1.00;0.60;;;;;;;;;;10532576;28;20079;-75
2024/02/06 04:14:09;;;;;;;1.17;0.57;;;;;;;;;;10541572;27;20051;-73
2024/02/06 04:19:12;;;;;;;1.58;0.45;;;;;;;;;;10540100;27;20446;-74
2024/02/06 04:24:17;;;;;;;2.03;0.70;;;;;;;;;;10544758;27;20689;-77
2024/02/06 04:29:19;;;;;;;;;;;;;;;;;;10543413;27;20149;-77
2024/02/06 04:34:22;;;;;;;4.97;0.73;;;;;;;;;;10526013;27;19929;-77
2024/02/06 04:39:26;;;;;;;4.55;0.90;;;;;;;;;;10543616;27;20316;-77
2024/02/06 04:44:29;;;;;;;2.60;0.75;;;;;;;;;;10544898;27;20561;-77
2024/02/06 04:49:33;;;;;;;1.33;0.90;;;;;;;;;;10541806;27;20500;-74
2024/02/06 04:54:38;;;;;;;2.92;0.68;;;;;;;;;;10542961;27;20506;-76
2024/02/06 04:59:40;;;;;;;;;;;;;;;;;;10543558;27;20575;-75
2024/02/06 05:04:43;;;;;;;9.00;1.23;;;;;;;;;;10536734;27;19928;-75
2024/02/06 05:09:48;;;;;;;4.53;0.70;;;;;;;;;;10536334;27;20036;-76
2024/02/06 05:14:51;;;;;;;2.67;0.80;;;;;;;;;;10539802;27;20493;-76
2024/02/06 05:19:54;;;;;;;3.95;1.00;;;;;;;;;;10536803;27;20051;-76
2024/02/06 05:24:58;;;;;;;4.65;0.98;;;;;;;;;;10539250;27;20709;-76
2024/02/06 05:30:04;;;;;;;2.00;0.93;;;;;;;;;;10538274;27;20126;-75
2024/02/06 05:35:08;;;;;;;4.93;1.05;;;;;;;;;;10533373;27;20044;-74
2024/02/06 05:40:12;;;;;;;3.90;1.07;;;;;;;;;;10537132;27;21071;-73
2024/02/06 05:45:15;;;;;;;5.20;1.33;;;;;;;;;;10538690;27;20134;-75
2024/02/06 05:50:18;;;;;;;4.93;0.90;;;;;;;;;;10535104;27;20402;-74
2024/02/06 05:55:22;;;;;;;1.77;1.08;;;;;;;;;;10537163;27;20032;-75
2024/02/06 06:00:26;;;;;;;7.22;1.30;;;;;;;;;;10536549;27;20166;-76
2024/02/06 06:05:29;;;;;;;7.57;1.63;;;;;;;;;;10533078;27;20051;-76
2024/02/06 06:10:34;;;;;;;3.60;1.27;;;;;;;;;;10535420;27;20047;-74
2024/02/06 06:15:36;;;;;;;8.13;2.17;;;;;;;;;;10535812;27;20122;-76
2024/02/06 06:20:39;;;;;;;4.18;1.48;;;;;;;;;;10537157;28;20145;-76
2024/02/06 06:25:43;;;;;;;5.25;1.13;;;;;;;;;;10541073;27;20377;-75
2024/02/06 06:30:46;;;;;;;3.60;1.30;;;;;;;;;;10533007;27;22063;-75
2024/02/06 06:35:49;;;;;;;5.20;1.67;;;;;;;;;;10530710;27;20086;-76
2024/02/06 06:40:53;;;;;;;6.03;1.40;;;;;;;;;;10534662;27;20086;-75
2024/02/06 06:45:56;;;;;;;;;;;;;;;;;;10531616;28;20044;-75
2024/02/06 06:51:00;;;;;;;6.88;2.10;;;;;;;;;;10533436;28;19925;-74
2024/02/06 06:56:05;;;;;;;11.98;2.95;;;;;;;;;;10529703;27;20276;-76
2024/02/06 07:01:07;;;;;;;12.48;3.60;;;;;;;;;;10532825;28;20591;-74
2024/02/06 07:06:10;;;;;;;9.02;3.63;;;;;;;;;;10531718;27;20485;-75
2024/02/06 07:11:17;;;;;;;12.25;3.70;;;;;;;;;;10534469;28;20048;-75
2024/02/06 07:16:20;;;;;;;10.77;2.88;;;;;;;;;;10531109;27;20048;-75
2024/02/06 07:21:23;;;;;;;13.05;4.32;;;;;;;;;;10532655;28;20044;-74
2024/02/06 07:26:27;;;;;;;9.95;3.55;;;;;;;;;;10530883;27;20341;-75
2024/02/06 07:31:30;;;;;;;12.85;4.10;;;;;;;;;;10533567;28;20310;-74
2024/02/06 07:36:33;;;;;;;14.32;4.78;;;;;;;;;;10534225;28;20521;-74
2024/02/06 07:41:38;;;;;;;10.60;4.73;;;;;;;;;;10531119;28;20051;-75
2024/02/06 07:46:41;;;;;;;12.85;4.88;;;;;;;;;;10537464;27;20048;-74
2024/02/06 07:51:45;;;;;;;13.47;4.70;;;;;;;;;;10545047;27;20051;-73
2024/02/06 07:56:49;;;;;;;12.47;4.67;;;;;;;;;;10545759;27;20293;-74
2024/02/06 08:01:57;;;;;;;13.93;4.80;;;;;;;;;;10540664;27;20056;-74
2024/02/06 08:07:02;;;;;;;16.45;5.32;;;;;;;;;;10540758;27;20048;-74
2024/02/06 08:12:07;;;;;;;11.27;5.05;;;;;;;;;;10540923;27;20070;-75
2024/02/06 08:17:10;;;;;;;12.18;5.25;;;;;;;;;;10542822;27;20581;-76
2024/02/06 08:22:12;;;;;;;11.45;4.85;;;;;;;;;;10545703;27;20040;-77
2024/02/06 08:27:17;;;;;;;10.63;5.07;;;;;;;;;;10542013;27;20047;-77
2024/02/06 08:32:20;;;;;;;9.55;4.93;;;;;;;;;;10543840;27;20067;-76
2024/02/06 08:37:22;;;;;;;14.25;4.65;;;;;;;;;;10541322;27;20040;-75
2024/02/06 08:42:26;;;;;;;12.85;4.97;;;;;;;;;;10539343;27;20048;-75
2024/02/06 08:47:29;;;;;;;18.73;5.10;;;;;;;;;;10538758;27;20089;-75
2024/02/06 08:52:32;;;;;;;16.20;5.13;;;;;;;;;;10540828;27;20589;-75
2024/02/06 08:57:36;;;;;;;;;;;;;;;;;;10540114;27;20135;-75
2024/02/06 09:02:40;;;;;;;12.73;5.10;;;;;;;;;;10540303;27;19933;-75
2024/02/06 09:07:43;;;;;;;11.70;4.80;;;;;;;;;;10539968;27;20051;-77
2024/02/06 09:12:45;;;;;;;14.40;4.88;;;;;;;;;;10540127;27;20281;-77
2024/02/06 09:17:49;;;;;;;13.38;4.55;;;;;;;;;;10538528;27;20208;-76
2024/02/06 09:22:52;;;;;;;8.52;4.30;;;;;;;;;;10541116;27;20035;-75
2024/02/06 09:27:55;;;;;;;9.90;4.50;;;;;;;;;;10538593;27;20134;-75
2024/02/06 09:32:59;;;;;;;9.90;4.20;;;;;;;;;;10537636;27;20069;-75
2024/02/06 09:38:02;;;;;;;10.73;4.40;;;;;;;;;;10539291;27;20047;-75
2024/02/06 09:43:07;;;;;;;10.90;4.15;;;;;;;;;;10544244;27;20059;-77
2024/02/06 09:48:13;;;;;;;13.95;4.40;;;;;;;;;;10540255;27;20398;-76
2024/02/06 09:53:16;;;;;;;17.20;4.65;;;;;;;;;;10540457;27;20942;-75
2024/02/06 09:58:20;;;;;;;9.68;4.18;;;;;;;;;;10539764;27;20040;-75
2024/02/06 10:03:28;;;;;;;10.60;3.38;;;;;;;;;;10539818;27;20142;-75
2024/02/06 10:08:30;;;;;;;13.45;4.07;;;;;;;;;;10535502;27;20433;-75
2024/02/06 10:13:33;;;;;;;;;;;;;;;;;;10537976;27;20070;-76
2024/02/06 10:18:49;;;;;;;8.80;4.22;;;;;;;;;;10535911;27;20392;-76
2024/02/06 10:23:59;;;;;;;10.60;4.28;;;;;;;;;;10536022;28;20067;-76
2024/02/06 10:29:05;;;;;;;9.48;4.07;;;;;;;;;;10538435;27;20027;-75
2024/02/06 10:34:11;;;;;;;10.93;4.20;;;;;;;;;;10535326;28;20812;-76
2024/02/06 10:39:15;;;;;;;8.77;4.00;;;;;;;;;;10535544;28;20164;-76
2024/02/06 10:44:22;;;;;;;9.77;3.90;;;;;;;;;;10537041;27;20114;-74
2024/02/06 10:49:27;;;;;;;9.70;4.15;;;;;;;;;;10533738;27;20614;-76
2024/02/06 10:54:30;;;;;;;13.95;4.35;;;;;;;;;;10537662;27;20123;-75
2024/02/06 10:59:34;;;;;;;9.98;3.90;;;;;;;;;;10534288;28;20047;-75
2024/02/06 11:04:41;;;;;;;13.07;4.45;;;;;;;;;;10536895;27;20051;-75
2024/02/06 11:09:44;;;;;;;10.13;3.75;;;;;;;;;;10534433;27;20063;-75
2024/02/06 11:14:48;;;;;;;10.07;3.72;;;;;;;;;;10534764;28;20048;-75
2024/02/06 11:19:56;;;;;;;7.57;3.10;;;;;;;;;;10540878;28;20074;-76
2024/02/06 11:24:59;;;;;;;9.23;4.10;;;;;;;;;;10540103;27;20050;-75
2024/02/06 11:30:03;;;;;;;11.20;4.15;;;;;;;;;;10540212;28;20451;-75
2024/02/06 11:35:07;;;;;;;8.18;3.58;;;;;;;;;;10539267;27;20047;-75
2024/02/06 11:40:11;;;;;;;7.63;3.53;;;;;;;;;;10539617;28;20485;-74
2024/02/06 11:45:19;;;;;;;9.88;3.88;;;;;;;;;;10539171;28;20492;-77
2024/02/06 11:50:29;;;;;;;9.23;3.95;;;;;;;;;;10534922;28;20046;-76
2024/02/06 11:55:33;;;;;;;7.53;3.58;;;;;;;;;;10536177;28;20044;-76
2024/02/06 12:00:39;;;;;;;7.90;4.25;;;;;;;;;;10536827;28;20148;-75
2024/02/06 12:05:43;;;;;;;11.45;4.00;;;;;;;;;;10534069;28;20059;-76
2024/02/06 12:10:48;;;;;;;12.15;4.13;;;;;;;;;;10537429;28;20607;-76
2024/02/06 12:15:52;;;;;;;8.25;3.90;;;;;;;;;;10532454;28;20058;-76
2024/02/06 12:20:56;;;;;;;10.30;4.10;;;;;;;;;;10533093;28;20051;-77
2024/02/06 12:25:59;;;;;;;6.28;3.10;;;;;;;;;;10533492;28;20039;-77
2024/02/06 12:31:03;;;;;;;;;;;;;;;;;;10531047;28;20036;-76
2024/02/06 12:36:08;;;;;;;8.23;3.40;;;;;;;;;;10539686;27;19924;-76
2024/02/06 12:41:11;;;;;;;6.65;3.03;;;;;;;;;;10539198;27;20067;-77
2024/02/06 12:46:14;;;;;;;8.73;3.65;;;;;;;;;;10539836;27;20051;-76
2024/02/06 12:51:18;;;;;;;7.82;3.08;;;;;;;;;;10538215;28;20040;-76
2024/02/06 12:56:24;;;;;;;12.98;2.85;;;;;;;;;;10538784;27;20071;-77
2024/02/06 13:01:27;;;;;;;9.52;3.75;;;;;;;;;;10536011;27;20040;-77
2024/02/06 13:06:45;;;;;;;12.65;3.40;;;;;;;;;;10537136;28;20136;-76
2024/02/06 13:11:49;;;;;;;8.25;2.83;;;;;;;;;;10536232;27;20032;-75
2024/02/06 13:16:52;;;;;;;7.85;3.70;;;;;;;;;;10543136;27;20108;-75
2024/02/06 13:21:56;;;;;;;7.53;3.40;;;;;;;;;;10536733;27;20036;-75
2024/02/06 13:26:59;;;;;;;;;;;;;;;;;;10541071;27;20056;-75
2024/02/06 13:32:03;;;;;;;9.05;3.42;;;;;;;;;;10541884;27;19935;-76
2024/02/06 13:37:07;;;;;;;9.35;3.67;;;;;;;;;;10542717;27;20047;-76
2024/02/06 13:42:10;;;;;;;6.32;3.60;;;;;;;;;;10542999;27;20131;-75
2024/02/06 13:47:13;;;;;;;;;;;;;;;;;;10550021;27;20652;-75
2024/02/06 13:52:17;;;;;;;8.50;3.57;;;;;;;;;;10536427;27;20315;-77
2024/02/06 13:57:20;;;;;;;5.85;3.50;;;;;;;;;;10537727;27;20066;-76
2024/02/06 14:02:22;;;;;;;8.73;3.17;;;;;;;;;;10537113;27;20528;-75
2024/02/06 14:07:27;;;;;;;7.22;3.08;;;;;;;;;;10538837;27;20119;-75
2024/02/06 14:12:30;;;;;;;6.88;3.00;;;;;;;;;;10538301;27;20044;-76
2024/02/06 14:17:48;;;;;;;5.38;2.42;;;;;;;;;;10542789;27;20524;-75
2024/02/06 14:22:53;;;;;;;8.57;3.22;;;;;;;;;;10534548;27;20052;-76
2024/02/06 14:27:55;;;;;;;9.15;4.28;;;;;;;;;;10536922;28;20047;-75
2024/02/06 14:32:58;;;;;;;9.37;3.27;;;;;;;;;;10520558;28;20044;-75
2024/02/06 14:38:02;;;;;;;9.68;3.10;;;;;;;;;;10540172;27;20486;-75
2024/02/06 14:43:05;;;;;;;7.68;3.25;;;;;;;;;;10537202;28;20044;-74
2024/02/06 14:48:08;;;;;;;7.40;3.10;;;;;;;;;;10537313;28;20177;-76
2024/02/06 14:53:12;;;;;;;9.52;3.25;;;;;;;;;;10534041;28;20162;-75
2024/02/06 14:58:15;;;;;;;6.50;3.05;;;;;;;;;;10536151;28;21423;-74
2024/02/06 15:03:18;;;;;;;6.97;3.10;;;;;;;;;;10535634;27;20497;-74
2024/02/06 15:08:22;;;;;;;6.40;3.00;;;;;;;;;;10534855;27;20062;-74
2024/02/06 15:13:25;;;;;;;12.07;3.42;;;;;;;;;;10538182;27;20105;-74
2024/02/06 15:18:29;;;;;;;8.43;3.10;;;;;;;;;;10539127;27;20447;-75
2024/02/06 15:23:34;;;;;;;7.90;2.75;;;;;;;;;;10544930;28;20055;-74
2024/02/06 15:28:36;;;;;;;;;;;;;;;;;;10537132;28;20075;-75
2024/02/06 15:33:39;;;;;;;9.80;3.20;;;;;;;;;;10532401;28;20352;-75
2024/02/06 15:38:43;;;;;;;7.60;3.20;;;;;;;;;;10539405;28;20770;-74
2024/02/06 15:43:46;;;;;;;;;;;;;;;;;;10541449;28;20750;-73
2024/02/06 15:48:48;;;;;;;6.40;2.90;;;;;;;;;;10537652;28;19928;-75
2024/02/06 15:53:52;;;;;;;5.93;3.00;;;;;;;;;;10541603;28;20558;-76
2024/02/06 15:58:55;;;;;;;;;;;;;;;;;;10520579;28;20054;-75
2024/02/06 16:03:58;;;;;;;6.47;2.92;;;;;;;;;;10534061;28;19930;-76
2024/02/06 16:09:03;;;;;;;8.60;3.22;;;;;;;;;;10547501;27;20071;-75
2024/02/06 16:14:06;;;;;;;7.80;2.80;;;;;;;;;;10543857;28;20058;-75
2024/02/06 16:19:09;;;;;;;10.82;3.33;;;;;;;;;;10543280;27;20047;-76
2024/02/06 16:24:30;;;;;;;10.75;3.38;;;;;;;;;;10522683;27;20055;-76
2024/02/06 16:29:32;;;;;;;;;;;;;;;;;;10542453;27;20129;-75
2024/02/06 16:34:35;;;;;;;11.77;3.17;;;;;;;;;;10538979;28;20046;-75
2024/02/06 16:39:43;;;;;;;8.77;4.03;;;;;;;;;;10523406;28;20051;-74
2024/02/06 16:44:47;;;;;;;12.52;3.55;;;;;;;;;;10542290;28;20051;-76
2024/02/06 16:49:50;;;;;;;13.57;3.70;;;;;;;;;;10542147;28;20067;-75
2024/02/06 16:54:55;;;;;;;11.32;3.53;;;;;;;;;;10542251;27;20058;-76
2024/02/06 16:59:58;;;;;;;7.22;3.50;;;;;;;;;;10540807;27;20130;-75
2024/02/06 17:05:01;;;;;;;10.63;3.47;;;;;;;;;;10541189;27;20112;-77
2024/02/06 17:10:07;;;;;;;11.60;3.70;;;;;;;;;;10540453;28;20051;-76
2024/02/06 17:15:10;;;;;;;9.43;3.80;;;;;;;;;;10541808;27;20047;-77
2024/02/06 17:20:13;;;;;;;9.88;3.50;;;;;;;;;;10539640;27;20185;-76
2024/02/06 17:25:18;;;;;;;8.63;2.67;;;;;;;;;;10539742;27;20085;-76
2024/02/06 17:30:21;;;;;;;11.82;3.33;;;;;;;;;;10542150;27;20047;-75
2024/02/06 17:35:24;;;;;;;5.23;2.50;;;;;;;;;;10535257;28;20523;-75
2024/02/06 17:40:29;;;;;;;7.95;2.95;;;;;;;;;;10537244;27;20044;-74
2024/02/06 17:45:31;;;;;;;6.32;2.63;;;;;;;;;;10536623;28;20043;-74
2024/02/06 17:50:34;;;;;;;4.07;1.75;;;;;;;;;;10536701;27;20076;-76
2024/02/06 17:55:38;;;;;;;7.53;2.22;;;;;;;;;;10536934;27;20049;-75
2024/02/06 18:00:41;;;;;;;4.28;1.80;;;;;;;;;;10536636;27;20058;-74
2024/02/06 18:05:45;;;;;;;4.75;2.30;;;;;;;;;;10535521;27;20496;-75
2024/02/06 18:10:49;;;;;;;9.63;2.35;;;;;;;;;;10535962;27;20173;-75
2024/02/06 18:15:52;;;;;;;6.50;2.08;;;;;;;;;;10536186;27;20036;-75
2024/02/06 18:20:55;;;;;;;4.82;1.98;;;;;;;;;;10536330;28;20195;-75
2024/02/06 18:26:02;;;;;;;2.42;1.10;;;;;;;;;;10538585;28;20046;-74
2024/02/06 18:31:06;;;;;;;2.65;1.60;;;;;;;;;;10534688;27;20047;-73
2024/02/06 18:36:10;;;;;;;5.20;2.30;;;;;;;;;;10532625;28;20128;-75
2024/02/06 18:41:21;;;;;;;2.72;1.33;;;;;;;;;;10535247;27;20039;-75
2024/02/06 18:46:23;;;;;;;3.50;1.45;;;;;;;;;;10535904;28;20104;-75
2024/02/06 18:51:26;;;;;;;9.65;2.33;;;;;;;;;;10532552;27;20497;-75
2024/02/06 18:56:30;;;;;;;6.45;2.03;;;;;;;;;;10534598;27;20044;-75
2024/02/06 19:01:33;;;;;;;;;;;;;;;;;;10534031;27;20043;-75
2024/02/06 19:06:36;;;;;;;3.80;1.73;;;;;;;;;;10515347;28;20470;-75
2024/02/06 19:11:42;;;;;;;2.28;1.40;;;;;;;;;;10534711;27;20066;-75
2024/02/06 19:16:46;;;;;;;7.50;2.20;;;;;;;;;;10533308;28;20523;-75
2024/02/06 19:21:49;;;;;;;6.55;2.50;;;;;;;;;;10554709;27;20409;-76
2024/02/06 19:26:53;;;;;;;5.40;1.52;;;;;;;;;;10535688;27;20149;-76
2024/02/06 19:31:59;;;;;;;2.35;1.73;;;;;;;;;;10533428;28;20120;-75
2024/02/06 19:37:06;;;;;;;4.43;1.65;;;;;;;;;;10534843;28;21552;-76
2024/02/06 19:42:10;;;;;;;4.18;1.83;;;;;;;;;;10527521;27;20044;-75
2024/02/06 19:47:13;;;;;;;7.22;2.47;;;;;;;;;;10531026;28;20040;-76
2024/02/06 19:52:17;;;;;;;5.38;2.60;;;;;;;;;;10531322;28;20062;-73
2024/02/06 19:57:21;;;;;;;3.08;1.52;;;;;;;;;;10520462;28;20122;-76
2024/02/06 20:02:24;;;;;;;3.58;1.67;;;;;;;;;;10531912;28;20531;-75
2024/02/06 20:07:27;;;;;;;2.47;1.70;;;;;;;;;;10533388;28;20040;-75
2024/02/06 20:12:31;;;;;;;5.85;2.30;;;;;;;;;;10532192;28;20054;-75
2024/02/06 20:17:35;;;;;;;2.38;1.25;;;;;;;;;;10536715;28;20133;-75
2024/02/06 20:22:38;;;;;;;4.30;1.83;;;;;;;;;;10540469;28;20068;-75
2024/02/06 20:27:42;;;;;;;4.55;1.90;;;;;;;;;;10537723;28;20062;-76
2024/02/06 20:32:45;;;;;;;2.88;1.33;;;;;;;;;;10539055;28;20126;-77
2024/02/06 20:37:47;;;;;;;1.50;0.93;;;;;;;;;;10539643;28;20104;-76
2024/02/06 20:42:52;;;;;;;3.20;0.88;;;;;;;;;;10540553;28;20115;-76
2024/02/06 20:47:56;;;;;;;2.10;1.02;;;;;;;;;;10535712;28;20210;-75
2024/02/06 20:52:59;;;;;;;3.03;0.95;;;;;;;;;;10533036;28;20058;-75
2024/02/06 20:58:03;;;;;;;1.48;0.82;;;;;;;;;;10541276;27;20101;-75
2024/02/06 21:03:06;;;;;;;3.60;2.00;;;;;;;;;;10539718;27;20044;-77
2024/02/06 21:08:10;;;;;;;2.67;1.60;;;;;;;;;;10544554;28;20064;-76
2024/02/06 21:13:15;;;;;;;3.60;1.60;;;;;;;;;;10538089;27;20048;-78
2024/02/06 21:18:17;;;;;;;2.22;1.10;;;;;;;;;;10531547;27;20073;-76
2024/02/06 21:23:20;;;;;;;1.92;1.10;;;;;;;;;;10546055;28;20042;-75
2024/02/06 21:28:25;;;;;;;4.07;1.70;;;;;;;;;;10541960;27;20055;-75
2024/02/06 21:33:31;;;;;;;3.30;1.88;;;;;;;;;;10545678;27;20044;-75
2024/02/06 21:38:35;;;;;;;3.80;1.50;;;;;;;;;;10543370;27;20127;-76
2024/02/06 21:43:45;;;;;;;24.88;4.25;;;;;;;;;;10539998;27;20289;-75
2024/02/06 21:48:48;;;;;;;1.98;1.63;;;;;;;;;;10539008;28;20127;-76
2024/02/06 21:53:51;;;;;;;2.17;1.20;;;;;;;;;;10539869;27;20047;-77
2024/02/06 21:58:56;;;;;;;5.43;1.98;;;;;;;;;;10540857;27;20039;-76
2024/02/06 22:03:58;;;;;;;;;;;;;;;;;;10540417;27;20044;-76
2024/02/06 22:09:03;;;;;;;5.97;2.10;;;;;;;;;;10539238;27;20364;-75
2024/02/06 22:14:07;;;;;;;3.83;1.90;;;;;;;;;;10537092;27;20586;-75
2024/02/06 22:19:10;;;;;;;7.38;1.77;;;;;;;;;;10533651;27;20044;-76
2024/02/06 22:24:14;;;;;;;3.53;1.83;;;;;;;;;;10541427;27;20051;-75
2024/02/06 22:29:19;;;;;;;4.40;2.53;;;;;;;;;;10536862;28;20145;-75
2024/02/06 22:34:21;;;;;;;3.25;1.75;;;;;;;;;;10542189;28;20663;-75
2024/02/06 22:39:24;;;;;;;4.63;2.50;;;;;;;;;;10538815;27;20043;-74
2024/02/06 22:44:28;;;;;;;10.25;2.15;;;;;;;;;;10535748;27;20050;-74
2024/02/06 22:49:31;;;;;;;4.30;1.83;;;;;;;;;;10533813;28;20046;-75
2024/02/06 22:54:34;;;;;;;5.40;2.33;;;;;;;;;;10535202;27;20520;-75
2024/02/06 22:59:39;;;;;;;2.53;1.50;;;;;;;;;;10535404;27;20106;-77
2024/02/06 23:04:42;;;;;;;4.55;2.35;;;;;;;;;;10535384;28;20044;-75
2024/02/06 23:09:45;;;;;;;3.53;1.63;;;;;;;;;;10532855;28;20176;-75
2024/02/06 23:14:49;;;;;;;3.60;2.00;;;;;;;;;;10535200;28;20055;-75
2024/02/06 23:19:53;;;;;;;3.65;1.92;;;;;;;;;;10539969;27;20055;-77
2024/02/06 23:24:56;;;;;;;6.20;2.28;;;;;;;;;;10535416;27;20054;-76
2024/02/06 23:30:00;;;;;;;3.35;1.70;;;;;;;;;;10533974;27;20095;-76
2024/02/06 23:35:05;;;;;;;5.25;2.85;;;;;;;;;;10535304;27;20047;-76
2024/02/06 23:40:09;;;;;;;5.20;2.17;;;;;;;;;;10535031;27;20052;-75
2024/02/06 23:45:14;;;;;;;7.10;2.50;;;;;;;;;;10532296;28;20725;-74
2024/02/06 23:50:16;;;;;;;6.10;2.00;;;;;;;;;;10530991;28;20616;-75
2024/02/06 23:55:19;;;;;;;4.30;2.20;;;;;;;;;;10533141;28;20210;-75
